Time;durP1;ratioP1;P1;durP2;ratioP2;P2;SDS_P1;SDS_P2;PMS_P1;PMS_P2;Temp;Humidity;BMP_temperature;BMP_pressure;BME280_temperature;BME280_humidity;BME280_pressure;Samples;Min_cycle;Max_cycle;Signal;HPM_P1;HPM_P2
2022/04/28 00:00:13;;;;;;;9.98;5.18;;;6.40;99.90;;;;;;5070720;28;20036;-48
2022/04/28 00:02:39;;;;;;;13.60;5.20;;;6.40;99.90;;;;;;5070733;28;20040;-46
2022/04/28 00:05:07;;;;;;;14.23;5.13;;;6.40;99.90;;;;;;5067850;28;20134;-47
2022/04/28 00:07:33;;;;;;;14.95;5.03;;;6.40;99.90;;;;;;5050944;28;20087;-46
2022/04/28 00:09:59;;;;;;;11.85;5.28;;;6.40;99.90;;;;;;5069316;28;20033;-46
2022/04/28 00:12:25;;;;;;;10.77;5.40;;;6.40;99.90;;;;;;5057900;28;20112;-48
2022/04/28 00:14:51;;;;;;;14.85;5.55;;;6.30;99.90;;;;;;5050229;28;20091;-47
2022/04/28 00:17:16;;;;;;;18.98;5.53;;;6.30;99.90;;;;;;5050394;28;20049;-46
2022/04/28 00:19:42;;;;;;;14.35;5.90;;;6.30;99.90;;;;;;5050584;28;20396;-47
2022/04/28 00:22:08;;;;;;;13.45;5.63;;;6.30;99.90;;;;;;5032904;28;20085;-50
2022/04/28 00:24:34;;;;;;;12.48;5.32;;;6.30;99.90;;;;;;5050389;28;20099;-47
2022/04/28 00:27:00;;;;;;;17.42;6.18;;;6.20;99.90;;;;;;5050749;28;20072;-48
2022/04/28 00:29:25;;;;;;;16.17;5.88;;;6.20;99.90;;;;;;5050656;28;20076;-47
2022/04/28 00:31:51;;;;;;;14.90;5.95;;;6.20;99.90;;;;;;5050357;28;20041;-49
2022/04/28 00:34:17;;;;;;;12.13;5.40;;;6.10;99.90;;;;;;5050386;28;20033;-48
2022/04/28 00:36:42;;;;;;;13.02;5.93;;;6.10;99.90;;;;;;5050148;28;20036;-46
2022/04/28 00:39:08;;;;;;;16.30;5.90;;;6.10;99.90;;;;;;5050299;28;20052;-46
2022/04/28 00:41:34;;;;;;;13.55;5.68;;;6.10;99.90;;;;;;5050063;28;20033;-46
2022/04/28 00:44:00;;;;;;;11.20;6.10;;;6.10;99.90;;;;;;5050121;28;20060;-47
2022/04/28 00:46:26;;;;;;;14.90;6.38;;;6.00;99.90;;;;;;5050575;28;20041;-47
2022/04/28 00:51:35;;;;;;;15.82;6.40;;;6.00;99.90;;;;;;5050371;28;20056;-48
2022/04/28 00:54:04;;;;;;;12.50;6.32;;;5.80;99.90;;;;;;5050043;28;20029;-46
2022/04/28 00:56:31;;;;;;;13.85;6.30;;;5.80;99.90;;;;;;5050139;28;20047;-47
2022/04/28 00:59:02;;;;;;;15.50;6.30;;;5.70;99.90;;;;;;5050026;28;20108;-48
2022/04/28 01:01:29;;;;;;;16.10;6.28;;;5.70;99.90;;;;;;5050490;28;20439;-46
2022/04/28 01:03:55;;;;;;;14.45;6.43;;;5.70;99.90;;;;;;5050442;28;20112;-49
2022/04/28 01:06:21;;;;;;;12.52;6.43;;;5.70;99.90;;;;;;5050001;28;20540;-49
2022/04/28 01:08:47;;;;;;;17.30;6.72;;;5.60;99.90;;;;;;5050450;28;20049;-49
2022/04/28 01:11:16;;;;;;;14.48;6.88;;;5.60;99.90;;;;;;5051628;28;20051;-46
2022/04/28 01:13:42;;;;;;;15.57;6.75;;;5.50;99.90;;;;;;5054240;28;20044;-46
2022/04/28 01:16:08;;;;;;;17.55;6.50;;;5.50;99.90;;;;;;5052654;28;20045;-47
2022/04/28 01:18:33;;;;;;;16.92;7.05;;;5.50;99.90;;;;;;5053318;28;20047;-50
2022/04/28 01:21:06;;;;;;;16.05;6.57;;;5.40;99.90;;;;;;5053752;28;20468;-46
2022/04/28 01:23:33;;;;;;;14.00;6.45;;;5.50;99.90;;;;;;5074446;28;20024;-47
2022/04/28 01:25:59;;;;;;;16.17;6.55;;;5.40;99.90;;;;;;5073553;28;20494;-49
2022/04/28 01:28:28;;;;;;;14.02;5.90;;;5.40;99.90;;;;;;5073536;28;20041;-47
2022/04/28 01:30:54;;;;;;;15.82;7.13;;;5.60;99.90;;;;;;5073698;28;20033;-49
2022/04/28 01:33:20;;;;;;;17.20;7.03;;;5.40;99.90;;;;;;5073609;28;20391;-47
2022/04/28 01:35:46;;;;;;;16.80;6.85;;;5.30;99.90;;;;;;5073462;28;20052;-48
2022/04/28 01:38:12;;;;;;;21.20;7.53;;;5.30;99.90;;;;;;5072974;28;20037;-47
2022/04/28 01:40:37;;;;;;;16.48;6.95;;;5.30;99.90;;;;;;5073195;28;20426;-49
2022/04/28 01:43:03;;;;;;;14.95;6.80;;;5.20;99.90;;;;;;5073152;28;20519;-47
2022/04/28 01:45:29;;;;;;;16.63;7.57;;;5.20;99.90;;;;;;5073664;28;20067;-45
2022/04/28 01:47:55;;;;;;;15.95;7.18;;;5.20;99.90;;;;;;5072718;28;20033;-48
2022/04/28 01:50:21;;;;;;;14.90;7.65;;;5.10;99.90;;;;;;5073101;28;20039;-47
2022/04/28 01:55:31;;;;;;;;;;;5.00;99.90;;;;;;5073497;28;20039;-46
2022/04/28 01:57:57;;;;;;;16.85;7.60;;;5.00;99.90;;;;;;5072967;28;19924;-47
2022/04/28 02:00:23;;;;;;;15.63;7.00;;;4.90;99.90;;;;;;5073246;28;20060;-49
2022/04/28 02:02:49;;;;;;;17.65;8.07;;;4.90;99.90;;;;;;5073222;28;20071;-49
2022/04/28 02:05:16;;;;;;;16.33;8.63;;;4.90;99.90;;;;;;5072966;28;20035;-48
2022/04/28 02:07:42;;;;;;;14.85;8.18;;;4.80;99.90;;;;;;5072892;28;20615;-49
2022/04/28 02:10:08;;;;;;;18.20;9.88;;;4.80;99.90;;;;;;5072899;28;20033;-46
2022/04/28 02:12:34;;;;;;;18.95;10.18;;;4.80;99.90;;;;;;5038124;28;20083;-46
2022/04/28 02:15:00;;;;;;;23.05;10.52;;;4.60;99.90;;;;;;5073041;28;20044;-50
2022/04/28 02:17:27;;;;;;;19.75;9.95;;;4.60;99.90;;;;;;5072263;28;20442;-49
2022/04/28 02:19:54;;;;;;;21.00;10.45;;;4.70;99.90;;;;;;5072678;28;20044;-47
2022/04/28 02:22:20;;;;;;;19.08;9.95;;;4.60;99.90;;;;;;5072368;28;20051;-50
2022/04/28 02:24:50;;;;;;;21.05;10.18;;;4.60;99.90;;;;;;5072411;28;20162;-49
2022/04/28 02:27:16;;;;;;;23.60;10.20;;;4.70;99.90;;;;;;5072643;28;20407;-48
2022/04/28 02:29:42;;;;;;;20.15;10.25;;;4.70;99.90;;;;;;5072518;28;20028;-47
2022/04/28 02:32:07;;;;;;;19.95;10.18;;;4.70;99.90;;;;;;5072433;28;20040;-46
2022/04/28 02:34:34;;;;;;;17.92;9.68;;;4.70;99.90;;;;;;5072604;28;20097;-48
2022/04/28 02:37:01;;;;;;;18.83;9.88;;;4.80;99.90;;;;;;5072331;28;20048;-47
2022/04/28 02:39:27;;;;;;;17.48;9.93;;;4.70;99.90;;;;;;5071987;28;20062;-46
2022/04/28 02:41:53;;;;;;;19.85;9.55;;;4.80;99.90;;;;;;5072218;28;20028;-49
2022/04/28 02:44:19;;;;;;;16.92;9.40;;;4.80;99.90;;;;;;5071865;28;20055;-48
2022/04/28 02:46:48;;;;;;;19.15;9.55;;;4.90;99.90;;;;;;5072037;28;20533;-46
2022/04/28 02:49:14;;;;;;;16.23;8.98;;;4.90;99.90;;;;;;5072082;28;20051;-47
2022/04/28 02:51:40;;;;;;;17.27;8.85;;;5.00;99.90;;;;;;5072064;28;20071;-47
2022/04/28 02:54:06;;;;;;;16.52;9.15;;;5.00;99.90;;;;;;5072041;28;20447;-49
2022/04/28 02:56:33;;;;;;;20.77;9.93;;;5.00;99.90;;;;;;5054072;28;20183;-47
2022/04/28 02:58:59;;;;;;;22.65;9.88;;;5.10;99.90;;;;;;5071867;28;20040;-49
2022/04/28 03:01:24;;;;;;;21.88;9.80;;;5.10;99.90;;;;;;5072083;28;20502;-47
2022/04/28 03:03:50;;;;;;;19.85;9.23;;;5.10;99.90;;;;;;5072059;28;20123;-45
2022/04/28 03:11:46;;;;;;;20.98;8.57;;;5.20;99.90;;;;;;5071726;28;20056;-46
2022/04/28 03:14:12;;;;;;;15.98;7.85;;;5.30;99.90;;;;;;5053477;28;20048;-46
2022/04/28 03:16:38;;;;;;;18.35;8.05;;;5.30;99.90;;;;;;5071710;28;20051;-45
2022/04/28 03:19:05;;;;;;;18.00;8.32;;;5.40;99.90;;;;;;5071149;28;20476;-48
2022/04/28 03:21:31;;;;;;;15.55;7.85;;;5.60;99.90;;;;;;5071536;28;20032;-46
2022/04/28 03:23:57;;;;;;;17.90;7.35;;;5.40;99.90;;;;;;5071296;28;20037;-49
2022/04/28 03:26:23;;;;;;;13.32;6.65;;;5.50;99.90;;;;;;5071215;28;20040;-48
2022/04/28 03:28:48;;;;;;;15.02;7.18;;;5.60;99.90;;;;;;5071144;28;20105;-50
2022/04/28 03:31:14;;;;;;;15.98;6.97;;;5.50;99.90;;;;;;5071076;28;20068;-50
2022/04/28 03:33:40;;;;;;;16.60;6.75;;;5.60;99.90;;;;;;5070870;28;20454;-48
2022/04/28 03:38:50;;;;;;;;;;;5.70;99.90;;;;;;5056310;28;20617;-46
2022/04/28 03:41:16;;;;;;;18.35;6.32;;;5.70;99.90;;;;;;5071420;28;19999;-46
2022/04/28 03:43:41;;;;;;;15.80;6.18;;;5.80;99.90;;;;;;5070626;28;20095;-47
2022/04/28 03:46:07;;;;;;;16.48;6.82;;;5.80;99.90;;;;;;5070922;28;20044;-47
2022/04/28 03:48:33;;;;;;;16.33;6.03;;;5.80;99.90;;;;;;5070168;28;20052;-49
2022/04/28 03:50:58;;;;;;;12.27;5.82;;;5.80;99.90;;;;;;5053108;28;20042;-49
2022/04/28 03:53:24;;;;;;;13.65;6.30;;;5.80;99.90;;;;;;5070888;28;20070;-47
2022/04/28 03:55:50;;;;;;;11.38;6.28;;;5.80;99.90;;;;;;5062442;28;20032;-49
2022/04/28 03:58:16;;;;;;;17.00;6.30;;;5.90;99.90;;;;;;5051159;28;20055;-46
2022/04/28 04:00:43;;;;;;;11.52;6.10;;;5.90;99.90;;;;;;5032705;28;20041;-47
2022/04/28 04:03:08;;;;;;;14.93;6.25;;;5.90;99.90;;;;;;5050789;28;20045;-47
2022/04/28 04:05:34;;;;;;;14.45;5.78;;;5.90;99.90;;;;;;5032890;28;20033;-48
2022/04/28 04:08:00;;;;;;;12.60;6.10;;;5.90;99.90;;;;;;5050884;28;20121;-49
2022/04/28 04:10:25;;;;;;;12.35;6.20;;;6.00;99.90;;;;;;5052054;28;20048;-46
2022/04/28 04:12:51;;;;;;;13.38;6.32;;;6.00;99.90;;;;;;5050619;28;20047;-46
2022/04/28 04:15:17;;;;;;;14.73;6.05;;;6.00;99.90;;;;;;5050944;28;20044;-47
2022/04/28 04:17:45;;;;;;;13.25;5.95;;;6.00;99.90;;;;;;5049623;28;20385;-49
2022/04/28 04:20:12;;;;;;;11.93;5.68;;;6.00;99.90;;;;;;5050485;28;20044;-46
2022/04/28 04:22:38;;;;;;;11.80;5.85;;;6.00;99.90;;;;;;5051911;28;20519;-46
2022/04/28 04:25:04;;;;;;;15.48;6.10;;;6.00;99.90;;;;;;5050787;28;20052;-49
2022/04/28 04:27:30;;;;;;;14.98;5.78;;;6.10;99.90;;;;;;5050275;28;20102;-46
2022/04/28 04:29:56;;;;;;;14.38;6.28;;;6.10;99.90;;;;;;5050420;28;20747;-50
2022/04/28 04:32:25;;;;;;;11.38;6.28;;;6.10;99.90;;;;;;5032588;28;20053;-50
2022/04/28 04:34:52;;;;;;;9.82;5.55;;;6.10;99.90;;;;;;5050398;28;20120;-47
2022/04/28 04:37:18;;;;;;;10.48;5.72;;;6.10;99.90;;;;;;5050431;28;20033;-48
2022/04/28 04:39:44;;;;;;;11.70;5.72;;;6.20;99.90;;;;;;5049785;28;20056;-48
2022/04/28 04:42:10;;;;;;;12.05;5.78;;;6.20;99.90;;;;;;5050267;28;20080;-47
2022/04/28 04:44:37;;;;;;;12.05;5.82;;;6.20;99.90;;;;;;5050121;28;20041;-46
2022/04/28 04:47:03;;;;;;;12.65;6.22;;;6.20;99.90;;;;;;5053400;28;20036;-48
2022/04/28 04:49:29;;;;;;;14.85;6.45;;;6.20;99.90;;;;;;5054600;28;20091;-46
2022/04/28 04:51:54;;;;;;;11.32;6.00;;;6.30;99.90;;;;;;5054196;28;20529;-46
2022/04/28 04:54:20;;;;;;;15.20;6.18;;;6.30;99.90;;;;;;5055002;28;20130;-48
2022/04/28 04:56:46;;;;;;;13.50;6.25;;;6.40;99.90;;;;;;5054175;28;20037;-50
2022/04/28 04:59:12;;;;;;;11.10;6.00;;;6.40;99.90;;;;;;5054150;28;20041;-48
2022/04/28 05:01:38;;;;;;;11.68;6.47;;;6.40;99.90;;;;;;5054015;28;20029;-46
2022/04/28 05:04:04;;;;;;;14.65;6.80;;;6.40;99.90;;;;;;5054313;28;20122;-49
2022/04/28 05:06:30;;;;;;;12.80;6.22;;;6.40;99.90;;;;;;5054069;28;20048;-52
2022/04/28 05:08:56;;;;;;;12.65;5.85;;;6.40;99.90;;;;;;5054307;28;20052;-51
2022/04/28 05:11:22;;;;;;;14.25;6.18;;;6.50;99.90;;;;;;5054028;28;20492;-49
2022/04/28 05:13:48;;;;;;;14.73;6.38;;;6.50;99.90;;;;;;5054216;28;20047;-48
2022/04/28 05:16:14;;;;;;;15.90;6.60;;;6.60;99.90;;;;;;5054149;28;20131;-47
2022/04/28 05:18:39;;;;;;;15.40;6.30;;;6.60;99.90;;;;;;5053557;28;20052;-49
2022/04/28 05:21:05;;;;;;;17.98;5.90;;;6.60;99.90;;;;;;5053952;28;20448;-49
2022/04/28 05:23:31;;;;;;;11.88;5.80;;;6.70;99.90;;;;;;5053725;28;20048;-47
2022/04/28 05:25:56;;;;;;;13.18;5.57;;;6.70;99.90;;;;;;5054183;28;20251;-47
2022/04/28 05:28:26;;;;;;;14.43;5.95;;;6.80;99.90;;;;;;5053698;28;20491;-48
2022/04/28 05:30:54;;;;;;;16.58;5.82;;;6.80;99.90;;;;;;5053818;28;20406;-48
2022/04/28 05:33:19;;;;;;;17.15;5.93;;;6.90;99.90;;;;;;5053642;28;20504;-47
2022/04/28 05:35:45;;;;;;;13.10;5.72;;;6.90;99.90;;;;;;5053557;28;20154;-46
2022/04/28 05:38:11;;;;;;;11.70;5.85;;;7.00;99.90;;;;;;5035719;28;20049;-47
2022/04/28 05:40:43;;;;;;;15.90;5.78;;;7.00;99.90;;;;;;5053476;28;20123;-47
2022/04/28 05:45:55;;;;;;;11.65;5.38;;;7.20;99.90;;;;;;5053498;28;20040;-48
2022/04/28 05:48:21;;;;;;;17.35;6.50;;;7.20;99.90;;;;;;5053171;28;20037;-50
2022/04/28 05:50:47;;;;;;;13.90;5.38;;;7.30;99.90;;;;;;5053250;28;20546;-48
2022/04/28 05:53:13;;;;;;;12.50;4.95;;;7.30;99.90;;;;;;5053372;28;20401;-49
2022/04/28 05:55:39;;;;;;;12.77;5.05;;;7.40;99.90;;;;;;5053107;28;20400;-46
2022/04/28 05:58:05;;;;;;;11.07;4.53;;;7.50;99.90;;;;;;5052843;28;20044;-47
2022/04/28 06:00:33;;;;;;;14.13;4.80;;;7.50;99.90;;;;;;5053123;28;20029;-49
2022/04/28 06:03:00;;;;;;;11.02;4.60;;;7.50;99.90;;;;;;5053065;28;20045;-49
2022/04/28 06:05:25;;;;;;;11.02;4.60;;;7.50;99.90;;;;;;5053263;28;20515;-47
2022/04/28 06:07:51;;;;;;;12.88;4.70;;;7.60;99.90;;;;;;5052815;28;20073;-48
2022/04/28 06:10:17;;;;;;;15.50;4.88;;;7.60;99.90;;;;;;5052972;28;20152;-47
2022/04/28 06:12:43;;;;;;;13.20;5.13;;;7.70;99.90;;;;;;5054053;28;20044;-47
2022/04/28 06:15:09;;;;;;;14.60;4.95;;;7.80;99.90;;;;;;5057736;28;20080;-47
2022/04/28 06:17:35;;;;;;;14.77;5.07;;;7.80;99.90;;;;;;5054287;28;20084;-46
2022/04/28 06:20:02;;;;;;;10.50;4.22;;;7.90;99.90;;;;;;5058980;28;20072;-47
2022/04/28 06:22:27;;;;;;;11.38;4.88;;;7.90;99.90;;;;;;5060241;28;20068;-49
2022/04/28 06:24:54;;;;;;;12.07;4.55;;;8.00;99.90;;;;;;5057203;28;20072;-48
2022/04/28 06:27:20;;;;;;;14.73;4.20;;;8.00;99.90;;;;;;5060343;28;20072;-49
2022/04/28 06:29:48;;;;;;;12.50;4.43;;;8.00;99.90;;;;;;5054931;28;20102;-48
2022/04/28 06:32:16;;;;;;;9.18;4.10;;;8.10;99.90;;;;;;5049517;28;20087;-47
2022/04/28 06:34:42;;;;;;;10.02;4.10;;;8.20;99.90;;;;;;5051459;28;20430;-47
2022/04/28 06:37:08;;;;;;;12.10;4.80;;;8.20;99.90;;;;;;5055332;28;20130;-46
2022/04/28 06:39:34;;;;;;;10.27;3.88;;;8.20;99.90;;;;;;5050008;28;20044;-48
2022/04/28 06:42:00;;;;;;;12.98;3.95;;;8.30;99.90;;;;;;5049269;28;20041;-48
2022/04/28 06:44:25;;;;;;;11.52;4.60;;;8.40;99.90;;;;;;5052218;28;20044;-47
2022/04/28 06:46:51;;;;;;;9.35;4.93;;;8.50;99.90;;;;;;5051367;28;20035;-47
2022/04/28 06:49:17;;;;;;;13.30;6.13;;;8.60;99.90;;;;;;5053709;28;20032;-47
2022/04/28 06:51:43;;;;;;;12.82;6.28;;;8.60;99.90;;;;;;5050384;28;20115;-46
2022/04/28 06:54:09;;;;;;;16.20;7.03;;;8.60;99.90;;;;;;5051114;28;20623;-48
2022/04/28 06:56:34;;;;;;;18.13;6.60;;;8.60;99.90;;;;;;5047875;28;20029;-47
2022/04/28 06:59:00;;;;;;;13.82;6.65;;;8.70;99.90;;;;;;5050971;28;20040;-49
2022/04/28 07:01:26;;;;;;;16.92;5.80;;;8.60;99.90;;;;;;5051957;28;20150;-48
2022/04/28 07:03:51;;;;;;;17.17;5.95;;;8.70;99.90;;;;;;5050106;28;20464;-47
2022/04/28 07:06:17;;;;;;;15.40;5.90;;;8.70;99.90;;;;;;5047263;28;20029;-47
2022/04/28 07:08:43;;;;;;;12.95;5.63;;;8.80;99.90;;;;;;5052086;28;20033;-46
2022/04/28 07:11:09;;;;;;;11.70;5.38;;;8.70;99.90;;;;;;5051653;28;20037;-47
2022/04/28 07:13:36;;;;;;;12.23;6.05;;;8.80;99.90;;;;;;5052784;28;20091;-47
2022/04/28 07:16:03;;;;;;;10.00;5.60;;;8.80;99.90;;;;;;5051155;28;20039;-47
2022/04/28 07:18:29;;;;;;;13.63;6.20;;;8.80;99.90;;;;;;5048473;28;20033;-48
2022/04/28 07:20:54;;;;;;;12.80;6.07;;;8.80;99.90;;;;;;5051137;28;20047;-47
2022/04/28 07:23:20;;;;;;;12.95;5.82;;;8.80;99.90;;;;;;5050229;28;20472;-46
2022/04/28 07:25:46;;;;;;;10.68;6.22;;;8.90;99.90;;;;;;5053397;28;20040;-47
2022/04/28 07:28:11;;;;;;;15.25;6.05;;;8.90;99.90;;;;;;5020952;28;20071;-46
2022/04/28 07:30:38;;;;;;;14.07;6.55;;;9.00;99.90;;;;;;5052030;28;20047;-47
2022/04/28 07:33:03;;;;;;;11.35;4.63;;;9.00;99.90;;;;;;5038332;28;20032;-47
2022/04/28 07:35:29;;;;;;;12.20;5.13;;;9.10;99.90;;;;;;5051571;28;20440;-47
2022/04/28 07:37:55;;;;;;;14.27;5.25;;;9.10;99.90;;;;;;5051713;28;20040;-47
2022/04/28 07:40:21;;;;;;;13.40;5.07;;;9.20;99.90;;;;;;5050105;28;20031;-46
2022/04/28 07:42:47;;;;;;;12.48;4.70;;;9.20;99.90;;;;;;5051197;28;20067;-49
2022/04/28 07:45:12;;;;;;;12.00;4.35;;;9.10;99.90;;;;;;5049704;28;20044;-48
2022/04/28 07:47:38;;;;;;;9.70;4.40;;;9.30;99.90;;;;;;5049294;28;20564;-49
2022/04/28 07:50:04;;;;;;;13.18;4.75;;;9.40;99.90;;;;;;5048836;28;20037;-49
2022/04/28 07:52:30;;;;;;;12.02;4.60;;;9.40;99.90;;;;;;5051906;28;20029;-49
2022/04/28 07:54:57;;;;;;;11.93;4.40;;;9.50;99.90;;;;;;5050955;28;20068;-48
2022/04/28 07:57:23;;;;;;;12.82;4.70;;;9.50;99.90;;;;;;5052478;28;20067;-45
2022/04/28 07:59:50;;;;;;;11.93;4.68;;;9.50;99.90;;;;;;5049884;28;20450;-50
2022/04/28 08:02:16;;;;;;;10.07;4.80;;;9.60;99.90;;;;;;5051221;28;20103;-50
2022/04/28 08:04:42;;;;;;;16.02;5.00;;;9.60;99.90;;;;;;5051494;28;20103;-47
2022/04/28 08:07:09;;;;;;;16.35;5.43;;;9.50;99.90;;;;;;5032654;28;20511;-46
2022/04/28 08:09:34;;;;;;;11.55;5.07;;;9.50;99.90;;;;;;5052757;28;20074;-47
2022/04/28 08:12:00;;;;;;;14.40;4.85;;;9.50;99.90;;;;;;5033225;28;20040;-48
2022/04/28 08:14:26;;;;;;;10.57;4.88;;;9.60;99.90;;;;;;5051462;28;20480;-45
2022/04/28 08:16:52;;;;;;;15.10;4.63;;;9.80;99.90;;;;;;5049721;28;20582;-49
2022/04/28 08:19:19;;;;;;;13.48;4.55;;;9.80;99.90;;;;;;5051487;28;20048;-49
2022/04/28 08:21:48;;;;;;;12.77;4.53;;;9.90;99.90;;;;;;5051870;28;20125;-48
2022/04/28 08:24:14;;;;;;;12.48;4.65;;;10.00;99.90;;;;;;5050645;28;20032;-48
2022/04/28 08:26:41;;;;;;;19.55;4.55;;;10.10;99.90;;;;;;5053019;28;20102;-49
2022/04/28 08:29:06;;;;;;;12.32;4.70;;;10.30;99.90;;;;;;5047796;28;20648;-48
2022/04/28 08:31:33;;;;;;;14.02;4.50;;;10.50;99.90;;;;;;5046191;28;20041;-48
2022/04/28 08:33:58;;;;;;;12.48;4.20;;;10.50;99.90;;;;;;5045520;28;20385;-47
2022/04/28 08:36:25;;;;;;;11.88;4.70;;;10.70;99.90;;;;;;5045569;28;20039;-46
2022/04/28 08:38:52;;;;;;;12.63;4.90;;;10.60;99.90;;;;;;5043384;28;20485;-48
2022/04/28 08:41:32;;;;;;;14.32;4.13;;;10.70;99.90;;;;;;5044481;28;20099;-46
2022/04/28 08:44:01;;;;;;;12.68;4.07;;;10.60;99.90;;;;;;5048164;28;20055;-48
2022/04/28 08:49:14;;;;;;;10.23;4.53;;;10.70;99.90;;;;;;5049724;28;20051;-50
2022/04/28 08:51:42;;;;;;;10.02;4.00;;;10.70;99.90;;;;;;5049396;28;20039;-48
2022/04/28 08:54:12;;;;;;;10.07;4.15;;;10.60;99.90;;;;;;5051467;28;20086;-48
2022/04/28 08:56:39;;;;;;;10.32;4.38;;;10.60;99.90;;;;;;5050543;28;20041;-48
2022/04/28 08:59:06;;;;;;;14.23;4.35;;;10.70;99.90;;;;;;5044284;28;20057;-48
2022/04/28 09:01:32;;;;;;;9.55;4.30;;;10.60;99.90;;;;;;5045566;28;20049;-50
2022/04/28 09:04:01;;;;;;;12.30;4.07;;;10.70;99.90;;;;;;5045747;28;20025;-47
2022/04/28 09:06:29;;;;;;;13.80;4.43;;;10.50;99.90;;;;;;5044126;28;20537;-49
2022/04/28 09:08:57;;;;;;;12.20;3.97;;;10.70;99.90;;;;;;5044801;28;20043;-49
2022/04/28 09:11:28;;;;;;;10.27;3.78;;;10.70;99.90;;;;;;5047408;28;20483;-47
2022/04/28 09:14:15;;;;;;;9.88;3.72;;;10.70;99.90;;;;;;5030094;28;20037;-47
2022/04/28 09:16:52;;;;;;;13.18;4.03;;;10.80;99.90;;;;;;5046156;28;20450;-46
2022/04/28 09:19:25;;;;;;;11.55;3.55;;;10.70;99.90;;;;;;5047982;28;20040;-49
2022/04/28 09:21:56;;;;;;;13.45;4.03;;;10.70;99.90;;;;;;5046916;28;20116;-48
2022/04/28 09:24:23;;;;;;;8.10;3.80;;;10.80;99.90;;;;;;5046135;28;20064;-49
2022/04/28 09:26:50;;;;;;;15.80;4.00;;;10.70;99.90;;;;;;5046565;28;20041;-47
2022/04/28 09:29:18;;;;;;;11.55;3.75;;;10.80;99.90;;;;;;5032009;28;20037;-47
2022/04/28 09:31:45;;;;;;;14.98;4.03;;;11.10;99.90;;;;;;5051830;28;20037;-47
2022/04/28 09:34:16;;;;;;;11.93;3.92;;;11.20;99.90;;;;;;5054043;28;20095;-48
2022/04/28 09:36:44;;;;;;;7.55;3.13;;;11.40;99.90;;;;;;5051293;28;20420;-48
2022/04/28 09:44:49;;;;;;;7.55;3.03;;;11.70;99.90;;;;;;5054469;28;20045;-48
2022/04/28 09:47:15;;;;;;;6.80;2.92;;;11.70;99.90;;;;;;5051812;28;20044;-49
2022/04/28 09:49:41;;;;;;;6.88;2.78;;;11.70;99.90;;;;;;5056554;28;20665;-48
2022/04/28 09:52:09;;;;;;;8.80;3.05;;;11.80;99.90;;;;;;5054920;28;20037;-49
2022/04/28 09:54:36;;;;;;;7.88;3.05;;;11.80;99.90;;;;;;5054921;28;20040;-48
2022/04/28 09:57:03;;;;;;;5.95;2.80;;;11.80;99.90;;;;;;5053866;28;20087;-50
2022/04/28 09:59:30;;;;;;;7.00;2.70;;;11.80;99.90;;;;;;5053353;28;20473;-51
2022/04/28 10:01:58;;;;;;;8.68;2.67;;;12.00;99.90;;;;;;5054776;28;20035;-50
2022/04/28 10:04:24;;;;;;;10.10;3.10;;;12.10;99.90;;;;;;5053664;28;20078;-48
2022/04/28 10:06:50;;;;;;;10.45;3.03;;;12.20;99.90;;;;;;5055344;28;20029;-48
2022/04/28 10:09:18;;;;;;;9.15;2.88;;;12.10;99.90;;;;;;5053891;28;20154;-51
2022/04/28 10:11:47;;;;;;;12.48;3.13;;;12.10;99.90;;;;;;5053952;28;20036;-47
2022/04/28 10:14:14;;;;;;;11.80;3.10;;;12.10;99.90;;;;;;5052486;28;20046;-48
2022/04/28 10:16:42;;;;;;;10.82;3.45;;;12.20;99.90;;;;;;5041041;28;20044;-47
2022/04/28 10:19:25;;;;;;;9.75;3.13;;;12.30;99.90;;;;;;5054317;28;20040;-47
2022/04/28 10:22:06;;;;;;;8.68;3.10;;;12.40;99.90;;;;;;5051121;28;20116;-47
2022/04/28 10:32:57;;;;;;;8.70;2.70;;;13.20;99.90;;;;;;5055263;28;20067;-48
2022/04/28 10:35:36;;;;;;;9.27;3.08;;;13.40;99.90;;;;;;5034008;28;20479;-49
2022/04/28 10:38:09;;;;;;;9.07;2.88;;;13.50;99.90;;;;;;5051487;28;20708;-47
2022/04/28 10:40:41;;;;;;;8.40;2.70;;;13.30;99.90;;;;;;5034619;28;20028;-48
2022/04/28 10:43:33;;;;;;;8.52;2.38;;;13.70;99.90;;;;;;5052324;28;20458;-48
2022/04/28 10:46:01;;;;;;;8.32;2.58;;;13.80;99.90;;;;;;5050856;28;20068;-47
2022/04/28 10:48:30;;;;;;;12.18;3.42;;;14.20;99.90;;;;;;5050424;28;20045;-46
2022/04/28 10:51:04;;;;;;;9.52;2.53;;;14.40;99.90;;;;;;5053728;28;20036;-49
2022/04/28 10:53:29;;;;;;;9.00;2.40;;;15.10;99.90;;;;;;5034915;28;20570;-48
2022/04/28 10:55:55;;;;;;;6.90;2.30;;;15.10;99.90;;;;;;5053863;28;20090;-49
2022/04/28 10:58:23;;;;;;;8.52;2.50;;;15.00;99.90;;;;;;5052579;28;20049;-46
2022/04/28 11:00:58;;;;;;;6.80;2.38;;;14.50;99.90;;;;;;5034208;28;20068;-49
2022/04/28 11:03:43;;;;;;;11.07;2.58;;;14.20;99.90;;;;;;5053885;28;20044;-47
2022/04/28 11:06:12;;;;;;;11.23;2.53;;;14.30;99.90;;;;;;5048603;28;20043;-50
2022/04/28 11:08:44;;;;;;;9.43;2.92;;;14.00;99.90;;;;;;5051528;28;20048;-46
2022/04/28 11:11:12;;;;;;;8.25;2.45;;;13.90;99.90;;;;;;5045130;28;20033;-49
2022/04/28 11:13:43;;;;;;;7.78;2.85;;;14.40;99.90;;;;;;5045773;28;20380;-46
2022/04/28 11:16:12;;;;;;;9.13;2.50;;;14.30;99.90;;;;;;5047068;28;20040;-49
2022/04/28 11:18:38;;;;;;;6.78;2.45;;;13.90;99.90;;;;;;5027266;28;20052;-49
2022/04/28 11:21:05;;;;;;;6.88;2.50;;;13.90;99.90;;;;;;5045266;28;20045;-45
2022/04/28 11:23:45;;;;;;;7.57;2.53;;;14.20;99.90;;;;;;5047163;28;20155;-49
2022/04/28 11:26:12;;;;;;;7.18;2.80;;;14.40;99.90;;;;;;5043910;28;20045;-46
2022/04/28 11:28:39;;;;;;;8.48;2.47;;;14.70;99.90;;;;;;5047421;28;20115;-47
2022/04/28 11:31:08;;;;;;;7.57;2.60;;;15.30;99.90;;;;;;5047434;28;20041;-48
2022/04/28 11:33:34;;;;;;;6.32;2.45;;;15.50;99.90;;;;;;5045390;28;20052;-50
2022/04/28 11:36:01;;;;;;;7.30;2.28;;;16.00;99.90;;;;;;5044767;28;20366;-50
2022/04/28 11:38:31;;;;;;;8.10;2.40;;;16.30;99.90;;;;;;5047702;28;20082;-50
2022/04/28 11:41:03;;;;;;;6.65;2.50;;;16.10;98.30;;;;;;5050562;28;20040;-51
2022/04/28 11:43:34;;;;;;;7.13;2.20;;;16.50;99.00;;;;;;5051137;28;20508;-47
2022/04/28 11:46:00;;;;;;;5.97;2.22;;;16.90;97.80;;;;;;5050493;28;20041;-49
2022/04/28 11:48:30;;;;;;;7.90;2.58;;;16.80;98.70;;;;;;5049922;28;20025;-48
2022/04/28 11:51:03;;;;;;;8.88;2.22;;;17.20;97.40;;;;;;5051649;28;20052;-50
2022/04/28 11:53:42;;;;;;;6.95;2.45;;;17.40;97.60;;;;;;5053394;28;20028;-49
2022/04/28 11:56:19;;;;;;;7.63;2.10;;;16.90;96.90;;;;;;5052803;28;20326;-48
2022/04/28 11:58:49;;;;;;;9.23;2.15;;;16.80;96.90;;;;;;5052079;28;20041;-47
2022/04/28 12:01:17;;;;;;;10.45;2.42;;;17.10;98.20;;;;;;5051398;28;20032;-50
2022/04/28 12:03:54;;;;;;;6.05;1.80;;;16.70;97.40;;;;;;5052883;28;20029;-49
2022/04/28 12:06:21;;;;;;;8.45;2.50;;;16.80;96.90;;;;;;5052783;28;20492;-48
2022/04/28 12:08:49;;;;;;;6.40;1.98;;;16.90;96.90;;;;;;5052764;28;20033;-50
2022/04/28 12:19:28;;;;;;;10.07;2.03;;;16.80;97.90;;;;;;5047504;28;19935;-49
2022/04/28 12:22:00;;;;;;;12.07;2.63;;;17.30;96.80;;;;;;5050434;28;20036;-49
2022/04/28 12:24:32;;;;;;;7.50;2.17;;;17.50;96.00;;;;;;5052882;28;20058;-49
2022/04/28 12:27:08;;;;;;;7.85;2.08;;;17.10;96.50;;;;;;5033115;28;20033;-47
2022/04/28 12:29:54;;;;;;;7.57;2.25;;;16.50;96.30;;;;;;5048373;28;20101;-51
2022/04/28 12:32:21;;;;;;;7.60;2.17;;;16.90;96.60;;;;;;5051731;28;20040;-47
2022/04/28 12:35:01;;;;;;;7.53;2.58;;;17.10;97.00;;;;;;5049602;28;20033;-50
2022/04/28 12:37:28;;;;;;;6.38;2.20;;;16.80;96.40;;;;;;5049580;28;20051;-51
2022/04/28 12:39:58;;;;;;;6.68;2.30;;;16.30;97.00;;;;;;5046714;28;20076;-48
2022/04/28 12:42:26;;;;;;;7.28;2.40;;;16.40;97.20;;;;;;5048134;28;20025;-49
2022/04/28 12:44:53;;;;;;;10.60;2.97;;;16.50;97.80;;;;;;5047300;28;20488;-47
2022/04/28 12:47:19;;;;;;;10.02;2.13;;;16.70;97.20;;;;;;5049752;28;20099;-50
2022/04/28 12:49:48;;;;;;;9.00;2.33;;;17.60;98.40;;;;;;5030629;28;20067;-49
2022/04/28 12:52:27;;;;;;;9.50;2.30;;;17.20;96.20;;;;;;5051673;28;20135;-52
2022/04/28 12:55:05;;;;;;;10.65;2.85;;;16.60;96.00;;;;;;5046944;28;20244;-53
2022/04/28 12:57:31;;;;;;;9.77;2.67;;;16.50;96.20;;;;;;5048631;28;20108;-51
2022/04/28 13:00:01;;;;;;;11.55;3.03;;;16.70;97.10;;;;;;5014287;28;20044;-50
2022/04/28 13:02:31;;;;;;;7.93;2.20;;;17.00;97.00;;;;;;5049992;28;20040;-48
2022/04/28 13:05:18;;;;;;;8.65;2.85;;;17.20;96.10;;;;;;5045169;28;20404;-48
2022/04/28 13:07:44;;;;;;;11.68;2.92;;;17.40;96.60;;;;;;5052409;28;20077;-51
2022/04/28 13:10:13;;;;;;;9.90;2.90;;;16.90;96.30;;;;;;5055197;28;20044;-47
2022/04/28 13:12:39;;;;;;;8.82;2.83;;;16.70;96.50;;;;;;5051390;28;20075;-48
2022/04/28 13:15:06;;;;;;;9.75;2.45;;;16.80;96.10;;;;;;5052499;28;21177;-47
2022/04/28 13:17:32;;;;;;;10.02;3.00;;;16.90;95.80;;;;;;5050289;28;20043;-47
2022/04/28 13:19:58;;;;;;;7.97;2.92;;;17.30;95.30;;;;;;5050943;28;20056;-47
2022/04/28 13:22:25;;;;;;;6.97;2.70;;;17.50;95.80;;;;;;5051450;28;20045;-50
2022/04/28 13:24:51;;;;;;;11.25;2.78;;;18.10;96.40;;;;;;5052079;28;20032;-48
2022/04/28 13:27:17;;;;;;;12.55;3.05;;;18.40;94.20;;;;;;5046384;28;20051;-50